الصفحة الرئيسية
METAR-TAF:

METAR-TAF

مطار :

مطار الأحساء الدولي

الأحساء, السعودية

دائرة عرض: 25-18N, خط طول: 049-29E, ارتفاع: 179 متر

مراقبة الطقس الحالي

تاريخ ووقت الإصدار 21 دقيقة قبل الساعة 14:00UTC
ريح 12 عقدة من الشمال الغربي
درجة الحرارة 45°درجة مئوية
الرطوبة 5%
ضغط 998 hPa
الرؤية 10 كم أو أكثر
الغيوم لا تقل 1500 م ولا وجود لمزنة ركامية السحاب الأسود

METAR: OEAH 141400Z 32012KT CAVOK 45/M03 Q0998 NOSIG

زمن: 17:21 (14:21 UTC)

توقعات

تاريخ ووقت الإصدار 4ساعات و 21 دقيقة قبل الساعة 10:00UTC
التوقعات صالحة من14 الساعة 12 UTC إلى 15 الساعة 18 UTC
ريح 10 عقدة من الشمال/الشمال الغربي
الرؤية 10 كم أو أكثر
الغيوم لا تقل 1500 م ولا وجود لمزنة ركامية السحاب الأسود
أصبح
من 14 الساعة 18 UTC إلى 14 الساعة 20 UTC
ريح 3 عقدةمن اتجاهات متغيرة
أصبح
من 15 الساعة 04 UTC إلى 15 الساعة 06 UTC
ريح 8 عقدة من الغرب

TAF: OEAH 141000Z 1412/1518 34010KT CAVOK BECMG 1418/1420 VRB03KT BECMG 1504/1506 28008KT

أرصاد الطقس والتوقعات من أكثر من 4000 مطار (تقارير الطقس للمطار METAR والتنبؤ بالطقس بالمطارTAF).

المحطات المتاحة هي النقط الصفراء والحمراء على الخريطة.

حرك المؤشر فوق النقطة لمعرفة اسم المحطة.

ثم انقر لمعرفة أرصاد وتوقعات الطقس.

لتغيير الخارطة: اضغط على الأزرار الخضراء مع رمز الصليب الأسود للتكبير. على الزر الأخضر مع شرطة للتصغير، أو على الأسهم الخضراء للخرائط المجاورة.


METAR-TAF: